Time;durP1;ratioP1;P1;durP2;ratioP2;P2;SDS_P1;SDS_P2;PMS_P1;PMS_P2;Temp;Humidity;BMP_temperature;BMP_pressure;BME280_temperature;BME280_humidity;BME280_pressure;Samples;Min_cycle;Max_cycle;Signal;HPM_P1;HPM_P2
2022/12/25 00:00:24;;;;;;;10.03;4.97;;;5.70;99.90;;;;;;5034725;28;20712;-51
2022/12/25 00:02:49;;;;;;;18.03;4.53;;;5.70;99.90;;;;;;5034827;28;20207;-50
2022/12/25 00:05:15;;;;;;;10.73;4.17;;;5.70;99.90;;;;;;5016938;28;20191;-50
2022/12/25 00:07:40;;;;;;;10.87;4.50;;;5.70;99.90;;;;;;5034968;28;20659;-50
2022/12/25 00:10:06;;;;;;;16.00;4.80;;;5.80;99.90;;;;;;5034734;28;20177;-51
2022/12/25 00:12:32;;;;;;;13.33;5.03;;;5.70;99.90;;;;;;5034420;28;20694;-50
2022/12/25 00:14:57;;;;;;;13.30;5.03;;;5.80;99.90;;;;;;5034592;28;20267;-51
2022/12/25 00:17:23;;;;;;;11.00;4.17;;;5.80;99.90;;;;;;5034498;28;20208;-52
2022/12/25 00:19:49;;;;;;;9.43;4.37;;;5.80;99.90;;;;;;5034466;28;20185;-51
2022/12/25 00:22:14;;;;;;;16.17;4.80;;;5.90;99.90;;;;;;5034397;28;20199;-50
2022/12/25 00:24:40;;;;;;;11.83;5.10;;;5.90;99.90;;;;;;5034992;28;20260;-50
2022/12/25 00:27:06;;;;;;;11.47;4.43;;;6.00;99.90;;;;;;5034577;28;20197;-51
2022/12/25 00:29:31;;;;;;;10.97;4.87;;;6.00;99.90;;;;;;5034535;28;20644;-51
2022/12/25 00:31:57;;;;;;;17.00;5.10;;;6.10;99.90;;;;;;5034208;28;20211;-50
2022/12/25 00:34:23;;;;;;;18.63;5.27;;;6.10;99.90;;;;;;5034576;28;20184;-50
2022/12/25 00:36:52;;;;;;;16.57;5.47;;;6.20;99.90;;;;;;5034027;28;20566;-52
2022/12/25 00:39:18;;;;;;;11.37;5.10;;;6.20;99.90;;;;;;5034024;28;20184;-51
2022/12/25 00:44:28;;;;;;;16.97;5.03;;;6.20;99.90;;;;;;5034625;28;20179;-45
2022/12/25 00:46:53;;;;;;;14.07;5.03;;;6.30;99.90;;;;;;5034221;28;20190;-44
2022/12/25 00:49:21;;;;;;;15.40;4.90;;;6.30;99.90;;;;;;5015876;28;20280;-47
2022/12/25 00:51:50;;;;;;;17.20;5.23;;;6.40;99.90;;;;;;5034368;28;20207;-44
2022/12/25 00:54:16;;;;;;;15.37;5.40;;;6.40;99.90;;;;;;5034615;28;20553;-44
2022/12/25 00:56:42;;;;;;;13.43;5.00;;;6.40;99.90;;;;;;5034124;28;20207;-44
2022/12/25 00:59:08;;;;;;;20.47;5.10;;;6.40;99.90;;;;;;5034054;28;20180;-42
2022/12/25 01:01:33;;;;;;;15.00;5.63;;;6.40;99.90;;;;;;5033707;28;20704;-43
2022/12/25 01:03:59;;;;;;;13.77;5.17;;;6.40;99.90;;;;;;5033654;28;20554;-43
2022/12/25 01:06:25;;;;;;;18.90;5.60;;;6.50;99.90;;;;;;5033788;28;20219;-45
2022/12/25 01:11:35;;;;;;;20.50;4.87;;;6.50;99.90;;;;;;5034023;28;20599;-44
2022/12/25 01:14:01;;;;;;;19.90;5.40;;;6.50;99.90;;;;;;5034002;28;20188;-44
2022/12/25 01:16:27;;;;;;;14.20;5.20;;;6.50;99.90;;;;;;5033516;28;20220;-45
2022/12/25 01:18:52;;;;;;;16.33;4.83;;;6.60;99.90;;;;;;5033862;28;20187;-45
2022/12/25 01:21:21;;;;;;;17.93;5.20;;;6.60;99.90;;;;;;5033902;28;20213;-44
2022/12/25 01:23:48;;;;;;;18.60;5.97;;;6.70;99.90;;;;;;5033669;28;20208;-43
2022/12/25 01:26:16;;;;;;;14.57;5.03;;;6.70;99.90;;;;;;5033529;28;20310;-43
2022/12/25 01:28:42;;;;;;;16.73;5.37;;;6.70;99.90;;;;;;5033429;28;20182;-44
2022/12/25 01:31:10;;;;;;;21.63;5.90;;;6.60;99.90;;;;;;5033334;28;20204;-45
2022/12/25 01:33:36;;;;;;;26.20;6.90;;;6.60;99.90;;;;;;5033661;28;20207;-43
2022/12/25 01:36:03;;;;;;;17.17;6.47;;;6.60;99.90;;;;;;5015551;28;20659;-46
2022/12/25 01:38:29;;;;;;;19.97;6.67;;;6.70;99.90;;;;;;5015615;28;20180;-44
2022/12/25 01:40:54;;;;;;;20.30;6.43;;;6.70;99.90;;;;;;5033533;28;20695;-45
2022/12/25 01:43:27;;;;;;;20.60;6.90;;;6.70;99.90;;;;;;5033275;28;20556;-45
2022/12/25 01:45:53;;;;;;;24.23;7.30;;;6.70;99.90;;;;;;5033436;28;20525;-47
2022/12/25 01:48:24;;;;;;;22.27;6.73;;;6.70;99.90;;;;;;5033267;28;20159;-45
2022/12/25 01:50:57;;;;;;;15.97;6.33;;;6.70;99.90;;;;;;5033225;28;20239;-47
2022/12/25 01:53:24;;;;;;;21.23;6.67;;;6.70;99.90;;;;;;5015786;28;20180;-45
2022/12/25 01:55:57;;;;;;;22.87;5.93;;;6.70;99.90;;;;;;5033204;28;20184;-44
2022/12/25 01:58:23;;;;;;;22.07;6.23;;;6.80;99.90;;;;;;5033451;28;20178;-45
2022/12/25 02:00:50;;;;;;;15.30;5.60;;;6.80;99.90;;;;;;5037104;28;20309;-44
2022/12/25 02:03:16;;;;;;;13.73;6.03;;;6.80;99.90;;;;;;5037083;28;20196;-44
2022/12/25 02:05:44;;;;;;;21.07;8.07;;;6.80;99.90;;;;;;5019746;28;20188;-44
2022/12/25 02:08:12;;;;;;;13.53;6.27;;;6.80;99.90;;;;;;5037599;28;20183;-45
2022/12/25 02:10:38;;;;;;;18.33;6.10;;;6.80;99.90;;;;;;5020773;28;20271;-44
2022/12/25 02:13:05;;;;;;;26.30;6.30;;;6.80;99.90;;;;;;5021519;28;20679;-44
2022/12/25 02:15:46;;;;;;;15.13;5.83;;;6.70;99.90;;;;;;5028562;28;20188;-44
2022/12/25 02:18:29;;;;;;;19.07;6.30;;;6.70;99.90;;;;;;5047059;28;20211;-43
2022/12/25 02:21:13;;;;;;;15.67;6.00;;;6.70;99.90;;;;;;5037390;28;20197;-45
2022/12/25 02:23:55;;;;;;;13.67;5.83;;;6.70;99.90;;;;;;5037049;28;20207;-46
2022/12/25 02:26:23;;;;;;;24.23;6.13;;;6.70;99.90;;;;;;5019081;28;20316;-46
2022/12/25 02:29:08;;;;;;;18.03;6.00;;;6.70;99.90;;;;;;5019177;28;20187;-43
2022/12/25 02:31:40;;;;;;;18.90;6.07;;;6.70;99.90;;;;;;5018768;28;20261;-46
2022/12/25 02:34:14;;;;;;;12.10;5.30;;;6.70;99.90;;;;;;5037157;28;20177;-45
2022/12/25 02:37:01;;;;;;;19.33;5.77;;;6.70;99.90;;;;;;5018617;28;20688;-46
2022/12/25 03:06:41;;;;;;;17.77;5.87;;;6.70;99.90;;;;;;5036269;28;20230;-46
2022/12/25 03:07:24;;;;;;;17.30;5.57;;;6.90;99.90;;;;;;5037083;28;20318;-44
2022/12/25 03:13:29;;;;;;;14.57;5.70;;;6.90;99.90;;;;;;5036476;28;20209;-45
2022/12/25 03:18:39;;;;;;;15.97;5.43;;;6.90;99.90;;;;;;5031653;28;20239;-43
2022/12/25 03:26:56;;;;;;;14.80;5.47;;;6.90;99.90;;;;;;5035832;28;20167;-44
2022/12/25 03:32:29;;;;;;;13.57;4.97;;;7.00;99.90;;;;;;5035642;28;20258;-46
2022/12/25 03:35:22;;;;;;;15.73;4.83;;;6.90;99.90;;;;;;5035699;28;20533;-45
2022/12/25 03:45:09;;;;;;;14.67;4.03;;;6.90;99.90;;;;;;5035530;28;20646;-45
2022/12/25 04:37:12;;;;;;;6.37;3.60;;;6.40;99.90;;;;;;5034750;28;20559;-44
2022/12/25 04:39:37;;;;;;;9.10;4.10;;;6.40;99.90;;;;;;5034407;28;20172;-45
2022/12/25 04:42:03;;;;;;;8.03;3.43;;;6.40;99.90;;;;;;5034362;28;20200;-43
2022/12/25 04:44:29;;;;;;;9.50;3.90;;;6.40;99.90;;;;;;5034129;28;20177;-44
2022/12/25 04:46:54;;;;;;;7.47;3.23;;;6.40;99.90;;;;;;5034281;28;20180;-46
2022/12/25 04:49:20;;;;;;;18.60;3.80;;;6.40;99.90;;;;;;5034334;28;20233;-45
2022/12/25 04:51:46;;;;;;;11.33;3.30;;;6.40;99.90;;;;;;5033987;28;20341;-45
2022/12/25 04:54:11;;;;;;;10.40;3.37;;;6.40;99.90;;;;;;5033879;28;20211;-46
2022/12/25 04:56:37;;;;;;;11.07;3.90;;;6.50;99.90;;;;;;5033902;28;20211;-44
2022/12/25 04:59:03;;;;;;;11.87;3.93;;;6.50;99.90;;;;;;5034031;28;20725;-45
2022/12/25 05:01:28;;;;;;;12.43;3.77;;;6.60;99.90;;;;;;5033743;28;20200;-46
2022/12/25 05:03:54;;;;;;;12.97;3.10;;;6.60;99.90;;;;;;5033762;28;20289;-46
2022/12/25 05:06:19;;;;;;;13.27;3.60;;;6.70;99.90;;;;;;5016079;28;20195;-44
2022/12/25 05:08:45;;;;;;;8.07;3.30;;;6.70;99.90;;;;;;5033757;28;20180;-46
2022/12/25 05:11:13;;;;;;;6.37;3.60;;;6.80;99.90;;;;;;5016294;28;20285;-44
2022/12/25 05:13:39;;;;;;;14.57;3.80;;;6.90;99.90;;;;;;5033889;28;20176;-44
2022/12/25 05:16:16;;;;;;;9.97;3.10;;;6.90;99.90;;;;;;5016166;28;20636;-44
2022/12/25 05:18:42;;;;;;;10.87;3.73;;;6.90;99.90;;;;;;5034507;28;20155;-44
2022/12/25 05:21:10;;;;;;;13.43;4.33;;;6.90;99.90;;;;;;5017009;28;20254;-46
2022/12/25 05:23:36;;;;;;;13.50;3.87;;;6.90;99.90;;;;;;5036242;28;20227;-46
2022/12/25 05:26:06;;;;;;;8.33;3.57;;;6.90;99.90;;;;;;5046956;28;20172;-45
2022/12/25 05:28:34;;;;;;;9.07;3.40;;;6.90;99.90;;;;;;5035120;28;20176;-44
2022/12/25 05:30:59;;;;;;;10.27;3.67;;;6.80;99.90;;;;;;5035917;28;20195;-44
2022/12/25 05:33:25;;;;;;;10.77;3.40;;;6.80;99.90;;;;;;5033352;28;20182;-43
2022/12/25 05:35:50;;;;;;;10.57;3.27;;;6.70;99.90;;;;;;5033498;28;20199;-42
2022/12/25 05:38:16;;;;;;;8.43;3.53;;;6.70;99.90;;;;;;5015694;28;20226;-43
2022/12/25 05:40:41;;;;;;;9.97;3.00;;;6.70;99.90;;;;;;5015550;28;20352;-43
2022/12/25 05:43:08;;;;;;;7.23;2.70;;;6.70;99.90;;;;;;5015458;28;20674;-44
2022/12/25 05:45:34;;;;;;;9.10;2.80;;;6.70;99.90;;;;;;5033552;28;20184;-46
2022/12/25 05:47:59;;;;;;;12.00;2.97;;;6.80;99.90;;;;;;5015469;28;20270;-43
2022/12/25 05:50:25;;;;;;;11.90;3.20;;;6.80;99.90;;;;;;5033186;28;20588;-42
2022/12/25 05:52:50;;;;;;;7.07;2.67;;;6.90;99.90;;;;;;5033114;28;20187;-45
2022/12/25 05:55:16;;;;;;;15.63;2.87;;;6.90;99.90;;;;;;5033318;28;20218;-44
2022/12/25 05:57:42;;;;;;;15.33;2.70;;;7.00;99.90;;;;;;5032906;28;20199;-43
2022/12/25 06:00:08;;;;;;;8.80;2.80;;;7.00;99.90;;;;;;5033294;28;20176;-44
2022/12/25 06:02:35;;;;;;;6.37;2.20;;;7.10;99.90;;;;;;5032916;28;20242;-46
2022/12/25 06:05:01;;;;;;;15.20;2.37;;;7.20;99.90;;;;;;5033177;28;20191;-41
2022/12/25 06:07:26;;;;;;;12.07;2.37;;;7.20;99.90;;;;;;5033127;28;20206;-46
2022/12/25 06:09:52;;;;;;;11.00;2.60;;;7.20;99.90;;;;;;5032919;28;20257;-45
2022/12/25 06:12:18;;;;;;;13.27;3.10;;;7.20;99.90;;;;;;5032911;28;20203;-46
2022/12/25 06:14:43;;;;;;;6.33;1.90;;;7.20;99.90;;;;;;5015266;28;20184;-45
2022/12/25 06:17:09;;;;;;;6.93;2.33;;;7.30;99.90;;;;;;5015042;28;20621;-45
2022/12/25 06:19:34;;;;;;;8.40;2.50;;;7.30;99.90;;;;;;5033127;28;20172;-44
2022/12/25 06:22:00;;;;;;;11.47;2.70;;;7.40;99.90;;;;;;4998874;28;20753;-44
2022/12/25 06:24:26;;;;;;;12.70;2.83;;;7.40;99.90;;;;;;5033043;28;20227;-43
2022/12/25 06:26:51;;;;;;;9.03;2.47;;;7.40;99.90;;;;;;5032833;28;20601;-45
2022/12/25 06:29:17;;;;;;;11.57;2.17;;;7.50;99.90;;;;;;5032916;28;20175;-44
2022/12/25 06:31:43;;;;;;;7.17;2.70;;;7.60;99.90;;;;;;5032899;28;20238;-44
2022/12/25 06:34:09;;;;;;;9.80;2.37;;;7.60;99.90;;;;;;5033153;28;20181;-44
2022/12/25 06:36:37;;;;;;;11.27;3.10;;;7.60;99.90;;;;;;5014884;28;20212;-44
2022/12/25 06:39:03;;;;;;;10.80;3.03;;;7.70;99.90;;;;;;5015002;28;20715;-44
2022/12/25 06:41:29;;;;;;;9.13;2.60;;;7.70;99.90;;;;;;5015013;28;20201;-47
2022/12/25 06:43:58;;;;;;;9.13;2.60;;;7.70;99.90;;;;;;5032851;28;20181;-44
2022/12/25 06:46:25;;;;;;;15.00;3.20;;;7.70;99.90;;;;;;5016186;28;20707;-45
2022/12/25 06:48:51;;;;;;;10.60;2.60;;;7.80;99.90;;;;;;5036835;28;20760;-46
2022/12/25 06:51:22;;;;;;;9.23;2.10;;;7.80;99.90;;;;;;5036299;28;20286;-46
2022/12/25 06:53:49;;;;;;;9.87;2.83;;;7.80;99.90;;;;;;5018727;28;20539;-46
2022/12/25 06:56:17;;;;;;;14.53;3.20;;;7.80;99.90;;;;;;5037097;28;20216;-45
2022/12/25 06:58:50;;;;;;;9.33;2.87;;;7.90;99.90;;;;;;5036264;28;20177;-46
2022/12/25 07:01:22;;;;;;;11.07;3.07;;;7.90;99.90;;;;;;5002437;28;20222;-45
2022/12/25 07:03:52;;;;;;;7.70;2.60;;;7.90;99.90;;;;;;5035917;28;20195;-43
2022/12/25 07:06:17;;;;;;;10.20;2.63;;;7.90;99.90;;;;;;5018123;28;20545;-45
2022/12/25 07:08:43;;;;;;;7.40;3.00;;;7.90;99.90;;;;;;5018199;28;20427;-44
2022/12/25 07:11:09;;;;;;;10.23;2.97;;;7.90;99.90;;;;;;5001859;28;20291;-45
2022/12/25 07:13:34;;;;;;;8.27;2.57;;;7.90;99.90;;;;;;5035808;28;20204;-46
2022/12/25 07:16:02;;;;;;;9.63;2.40;;;7.90;99.90;;;;;;5036074;28;20652;-45
2022/12/25 07:18:29;;;;;;;10.57;2.50;;;7.90;99.90;;;;;;5035703;28;20204;-46
2022/12/25 07:20:54;;;;;;;10.20;2.90;;;8.00;99.90;;;;;;5018146;28;20213;-44
2022/12/25 07:23:22;;;;;;;11.53;2.50;;;8.00;99.90;;;;;;5035862;28;20552;-45
2022/12/25 07:25:57;;;;;;;8.20;2.53;;;8.00;99.90;;;;;;5017787;28;20195;-47
2022/12/25 07:28:23;;;;;;;7.13;2.70;;;8.00;99.90;;;;;;5035495;28;20263;-44
2022/12/25 07:30:49;;;;;;;4.40;2.37;;;7.90;99.90;;;;;;5017547;28;20231;-45
2022/12/25 07:33:15;;;;;;;7.53;2.63;;;8.00;99.90;;;;;;5017643;28;20577;-45
2022/12/25 07:35:41;;;;;;;8.27;2.43;;;7.90;99.90;;;;;;5036032;28;20193;-45
2022/12/25 07:38:07;;;;;;;4.57;1.87;;;7.90;99.90;;;;;;5017751;28;20273;-45
2022/12/25 07:40:32;;;;;;;5.17;2.60;;;7.90;99.90;;;;;;5035278;28;20203;-44
2022/12/25 07:42:58;;;;;;;13.70;2.90;;;7.90;99.90;;;;;;5017806;28;20176;-44
2022/12/25 07:45:23;;;;;;;8.03;2.33;;;8.00;99.90;;;;;;5035279;28;20188;-44
2022/12/25 07:47:49;;;;;;;11.03;2.50;;;8.00;99.90;;;;;;5017518;28;20549;-44
2022/12/25 07:50:16;;;;;;;7.80;2.37;;;8.00;99.90;;;;;;5001280;28;20185;-45
2022/12/25 07:52:42;;;;;;;5.73;2.60;;;8.00;99.90;;;;;;5017234;28;20205;-44
2022/12/25 07:55:09;;;;;;;5.00;2.30;;;8.00;99.90;;;;;;5035230;28;20185;-45
2022/12/25 07:57:35;;;;;;;8.40;2.93;;;8.00;99.90;;;;;;5016970;28;20216;-44
2022/12/25 08:00:05;;;;;;;9.80;2.53;;;8.00;99.90;;;;;;5034925;28;20539;-43
2022/12/25 08:02:31;;;;;;;13.73;2.30;;;8.00;99.90;;;;;;5034729;28;20224;-45
2022/12/25 08:04:57;;;;;;;5.80;2.20;;;8.10;99.90;;;;;;5017345;28;20588;-43
2022/12/25 08:07:23;;;;;;;6.87;2.47;;;8.10;99.90;;;;;;5035117;28;20209;-44
2022/12/25 08:09:48;;;;;;;10.80;2.30;;;8.10;99.90;;;;;;5035101;28;20268;-44
2022/12/25 08:12:14;;;;;;;7.53;2.33;;;8.20;99.90;;;;;;5016996;28;20213;-44
2022/12/25 08:14:40;;;;;;;12.10;2.30;;;8.20;99.90;;;;;;5034573;28;20239;-44
2022/12/25 08:17:06;;;;;;;7.97;2.13;;;8.20;99.90;;;;;;5017137;28;20244;-44
2022/12/25 08:19:32;;;;;;;5.53;2.47;;;8.20;99.90;;;;;;5034690;28;20251;-44
2022/12/25 08:21:57;;;;;;;6.83;2.03;;;8.20;99.90;;;;;;5035942;28;20653;-46
2022/12/25 08:24:23;;;;;;;8.30;2.40;;;8.30;99.90;;;;;;5017052;28;20176;-44
2022/12/25 08:26:48;;;;;;;6.47;2.00;;;8.30;99.90;;;;;;5034996;28;20558;-44
2022/12/25 08:29:14;;;;;;;12.43;2.20;;;8.30;99.90;;;;;;5034843;28;20180;-44
2022/12/25 08:31:42;;;;;;;9.37;2.70;;;8.40;99.90;;;;;;5034881;28;20203;-44
2022/12/25 08:34:09;;;;;;;11.87;3.10;;;8.40;99.90;;;;;;5017356;28;20188;-46
2022/12/25 08:36:35;;;;;;;6.37;1.87;;;8.40;99.90;;;;;;5035990;28;20214;-43
2022/12/25 08:39:00;;;;;;;4.83;1.70;;;8.50;99.90;;;;;;5043479;28;20177;-44
2022/12/25 08:41:26;;;;;;;10.77;2.50;;;8.50;99.90;;;;;;5031200;28;20204;-43
2022/12/25 08:43:52;;;;;;;7.67;2.37;;;8.50;99.90;;;;;;5021956;28;20283;-45
2022/12/25 08:46:19;;;;;;;11.30;2.50;;;8.50;99.90;;;;;;5016966;28;20224;-45
2022/12/25 08:48:46;;;;;;;5.10;2.33;;;8.50;99.90;;;;;;5016517;28;20192;-45
2022/12/25 08:51:14;;;;;;;4.80;2.30;;;8.60;99.90;;;;;;5000234;28;20200;-44
2022/12/25 08:53:41;;;;;;;16.20;2.67;;;8.60;99.90;;;;;;5016395;28;20184;-43
2022/12/25 08:56:07;;;;;;;5.00;2.20;;;8.60;99.90;;;;;;5033890;28;20165;-45
2022/12/25 08:58:33;;;;;;;7.90;2.53;;;8.70;99.90;;;;;;5016337;28;20177;-45
2022/12/25 09:00:59;;;;;;;8.10;2.37;;;8.70;99.90;;;;;;5033989;28;20673;-43
2022/12/25 09:03:25;;;;;;;9.23;2.47;;;8.70;99.90;;;;;;5015964;28;20202;-43
2022/12/25 09:05:54;;;;;;;8.33;2.93;;;8.70;99.90;;;;;;5016361;28;20169;-43
2022/12/25 09:08:20;;;;;;;6.10;2.43;;;8.70;99.90;;;;;;5015762;28;20193;-45
2022/12/25 09:10:47;;;;;;;9.67;2.93;;;8.70;99.90;;;;;;5015775;28;20196;-44
2022/12/25 09:13:13;;;;;;;10.93;2.63;;;8.80;99.90;;;;;;5034054;28;20177;-44
2022/12/25 09:15:39;;;;;;;10.90;3.20;;;8.70;99.90;;;;;;5015941;28;20181;-43
2022/12/25 09:18:05;;;;;;;8.50;3.17;;;8.70;99.90;;;;;;5015792;28;20215;-43
2022/12/25 09:20:31;;;;;;;10.90;3.33;;;8.70;99.90;;;;;;5033511;28;20223;-42
2022/12/25 09:22:56;;;;;;;9.43;3.60;;;8.70;99.90;;;;;;5015870;28;20173;-43
2022/12/25 09:25:22;;;;;;;7.67;3.10;;;8.70;99.90;;;;;;5016093;28;20173;-42
2022/12/25 09:27:48;;;;;;;10.27;3.93;;;8.70;99.90;;;;;;5015815;28;20648;-43
2022/12/25 09:30:14;;;;;;;7.47;3.27;;;8.70;99.90;;;;;;5015731;28;20223;-43
2022/12/25 09:32:39;;;;;;;7.87;3.40;;;8.70;99.90;;;;;;5015758;28;20204;-45
2022/12/25 09:35:06;;;;;;;11.67;3.20;;;8.70;99.90;;;;;;5033596;28;20181;-45
2022/12/25 09:37:32;;;;;;;10.23;3.33;;;8.70;99.90;;;;;;5015623;28;20204;-44
2022/12/25 09:39:58;;;;;;;9.80;3.37;;;8.60;99.90;;;;;;5015774;28;20234;-42
2022/12/25 09:42:33;;;;;;;9.67;3.33;;;8.70;99.90;;;;;;5015516;28;20707;-43
2022/12/25 09:45:31;;;;;;;15.50;4.10;;;8.60;99.90;;;;;;5033543;28;20165;-42
2022/12/25 09:47:57;;;;;;;7.20;3.70;;;8.60;99.90;;;;;;5033042;28;20199;-43
2022/12/25 09:50:42;;;;;;;9.17;3.63;;;8.60;99.90;;;;;;5033233;28;20647;-44
2022/12/25 09:53:23;;;;;;;7.90;3.33;;;8.60;99.90;;;;;;5034107;28;20157;-45
2022/12/25 09:56:05;;;;;;;10.90;3.67;;;8.60;99.90;;;;;;5016790;28;20544;-45
2022/12/25 09:58:32;;;;;;;14.60;3.40;;;8.60;99.90;;;;;;5016385;28;20189;-49
2022/12/25 10:01:36;;;;;;;7.80;3.27;;;8.60;99.90;;;;;;5033889;28;20212;-49
2022/12/25 10:04:08;;;;;;;10.07;3.93;;;8.60;99.90;;;;;;5003255;28;20208;-48
2022/12/25 10:06:53;;;;;;;9.90;4.03;;;8.70;99.90;;;;;;5033105;28;20593;-49
2022/12/25 10:09:25;;;;;;;9.50;3.90;;;8.70;99.90;;;;;;5033897;28;20516;-49
2022/12/25 10:12:11;;;;;;;10.47;4.40;;;8.70;99.90;;;;;;5033071;28;20666;-49
2022/12/25 10:15:10;;;;;;;11.97;4.17;;;8.70;99.90;;;;;;5033068;28;20220;-49
2022/12/25 10:18:02;;;;;;;12.87;4.50;;;8.70;99.90;;;;;;5033157;28;20323;-43
2022/12/25 10:20:50;;;;;;;13.03;4.40;;;8.70;99.90;;;;;;4985803;28;20193;-45
2022/12/25 10:23:23;;;;;;;13.60;4.67;;;8.80;99.90;;;;;;5019138;28;20185;-43
2022/12/25 10:25:51;;;;;;;15.87;4.57;;;8.80;99.90;;;;;;5019131;28;20188;-44
2022/12/25 10:28:33;;;;;;;7.50;4.40;;;8.70;99.90;;;;;;5037018;28;20246;-44
2022/12/25 10:31:14;;;;;;;12.40;3.93;;;8.80;99.90;;;;;;5036958;28;20624;-44
2022/12/25 10:33:39;;;;;;;10.63;4.13;;;8.80;99.90;;;;;;5037367;28;20233;-42
2022/12/25 10:36:08;;;;;;;8.23;4.33;;;8.80;99.90;;;;;;5019280;28;20188;-44
2022/12/25 10:38:35;;;;;;;12.63;4.77;;;8.80;99.90;;;;;;5036582;28;20189;-43
2022/12/25 10:41:25;;;;;;;13.33;4.70;;;8.80;99.90;;;;;;5018894;28;20544;-43
2022/12/25 10:43:54;;;;;;;9.90;4.43;;;8.80;99.90;;;;;;5036462;28;20609;-42
2022/12/25 10:46:21;;;;;;;9.27;4.70;;;8.90;99.90;;;;;;5036313;28;20257;-44
2022/12/25 10:48:53;;;;;;;8.27;3.80;;;8.90;99.90;;;;;;5036861;28;20185;-43
2022/12/25 10:51:32;;;;;;;8.90;4.07;;;8.90;99.90;;;;;;5018556;28;20203;-45
2022/12/25 10:53:58;;;;;;;5.77;3.53;;;9.00;99.90;;;;;;5036472;28;20196;-42
2022/12/25 10:56:23;;;;;;;8.93;4.20;;;9.00;99.90;;;;;;5018501;28;20235;-42
2022/12/25 10:58:49;;;;;;;8.57;4.50;;;9.00;99.90;;;;;;5018345;28;20185;-45
2022/12/25 11:01:15;;;;;;;11.30;4.50;;;9.00;99.90;;;;;;5018614;28;20193;-43
2022/12/25 11:03:44;;;;;;;7.67;4.23;;;9.00;99.90;;;;;;5018295;28;20250;-43
2022/12/25 11:06:25;;;;;;;15.03;4.90;;;9.00;99.90;;;;;;5036156;28;20295;-44
2022/12/25 11:08:55;;;;;;;11.00;4.77;;;9.10;99.90;;;;;;5018609;28;20530;-44
2022/12/25 11:11:21;;;;;;;11.23;5.10;;;9.00;99.90;;;;;;5018145;28;20205;-44
2022/12/25 11:13:53;;;;;;;11.13;4.77;;;9.10;99.90;;;;;;5036215;28;20183;-43
2022/12/25 11:23:21;;;;;;;9.47;4.40;;;9.20;99.90;;;;;;4956250;29;20246;-44
2022/12/25 11:26:05;;;;;;;7.27;4.00;;;9.20;99.90;;;;;;4939567;29;20571;-42
2022/12/25 11:28:34;;;;;;;7.93;3.70;;;9.20;99.90;;;;;;5006329;28;20191;-43
2022/12/25 11:31:30;;;;;;;6.10;3.73;;;9.20;99.90;;;;;;5036179;28;20221;-43
2022/12/25 11:34:34;;;;;;;7.40;3.77;;;9.20;99.90;;;;;;5020635;28;20198;-43
2022/12/25 11:37:34;;;;;;;6.20;3.83;;;9.20;99.90;;;;;;5035851;28;20216;-43
2022/12/25 11:40:01;;;;;;;8.17;3.90;;;9.20;99.90;;;;;;5017919;28;20183;-44
2022/12/25 11:42:36;;;;;;;7.00;4.37;;;9.30;99.90;;;;;;5017534;28;20295;-45
2022/12/25 11:45:12;;;;;;;6.00;4.07;;;9.30;99.90;;;;;;5017906;28;20208;-44
2022/12/25 11:47:47;;;;;;;6.33;4.33;;;9.30;99.90;;;;;;5035467;28;20178;-44
2022/12/25 11:50:24;;;;;;;13.93;4.93;;;9.30;99.90;;;;;;5018669;28;20191;-46
2022/12/25 11:58:11;;;;;;;12.33;5.83;;;9.30;99.90;;;;;;3347942;26;20236;-48
2022/12/25 12:00:37;;;;;;;11.43;5.50;;;9.30;99.90;;;;;;5013957;28;20205;-49
2022/12/25 12:03:14;;;;;;;10.33;4.97;;;9.40;99.90;;;;;;5015568;28;20182;-50
2022/12/25 12:06:02;;;;;;;12.23;6.07;;;9.40;99.90;;;;;;5014137;28;20253;-50
2022/12/25 12:08:29;;;;;;;11.00;6.07;;;9.30;99.90;;;;;;5015159;28;20194;-49
2022/12/25 12:11:14;;;;;;;13.93;6.57;;;9.40;99.90;;;;;;5014117;28;20201;-49
2022/12/25 12:13:49;;;;;;;12.70;5.47;;;9.40;99.90;;;;;;5014193;28;20629;-49
2022/12/25 12:16:15;;;;;;;16.43;6.07;;;9.40;99.90;;;;;;5013645;28;20174;-52
2022/12/25 12:18:40;;;;;;;10.87;6.60;;;9.40;99.90;;;;;;5014564;28;20182;-44
2022/12/25 12:21:10;;;;;;;13.77;6.70;;;9.40;99.90;;;;;;5015014;28;20301;-42
2022/12/25 12:24:05;;;;;;;11.00;5.60;;;9.40;99.90;;;;;;5013711;28;20182;-43
2022/12/25 12:26:36;;;;;;;14.03;5.93;;;9.40;99.90;;;;;;5015509;28;20174;-41
2022/12/25 12:29:04;;;;;;;18.70;6.20;;;9.40;99.90;;;;;;5015740;28;20548;-44
2022/12/25 12:31:46;;;;;;;13.43;6.03;;;9.40;99.90;;;;;;5014755;28;20268;-41
2022/12/25 12:34:29;;;;;;;15.70;6.00;;;9.40;99.90;;;;;;5013575;28;20183;-45
2022/12/25 12:37:06;;;;;;;12.40;6.33;;;9.40;99.90;;;;;;5014721;28;20210;-43
2022/12/25 12:39:37;;;;;;;10.53;5.83;;;9.40;99.90;;;;;;5015091;28;20245;-42
2022/12/25 12:42:16;;;;;;;12.03;6.43;;;9.50;99.90;;;;;;5015092;28;20213;-42
2022/12/25 12:44:45;;;;;;;10.47;5.40;;;9.50;99.90;;;;;;5014086;28;20276;-45
2022/12/25 12:47:46;;;;;;;13.97;6.87;;;9.50;99.90;;;;;;5015350;28;20545;-43
2022/12/25 12:50:33;;;;;;;14.87;6.50;;;9.50;99.90;;;;;;5015104;28;20235;-42
2022/12/25 12:53:12;;;;;;;15.63;6.63;;;9.50;99.90;;;;;;5015908;28;20182;-42
2022/12/25 12:55:38;;;;;;;16.03;6.40;;;9.60;99.90;;;;;;5017896;28;20174;-44
2022/12/25 12:58:05;;;;;;;16.67;7.17;;;9.60;99.90;;;;;;5032469;28;20242;-44
2022/12/25 13:01:16;;;;;;;13.37;6.43;;;9.60;99.90;;;;;;5030645;28;20169;-44
2022/12/25 13:04:17;;;;;;;15.10;6.80;;;9.60;99.90;;;;;;5011694;28;20244;-44
2022/12/25 13:06:53;;;;;;;17.67;6.83;;;9.60;99.90;;;;;;5014825;28;20242;-43
2022/12/25 13:10:10;;;;;;;20.33;7.90;;;9.60;99.90;;;;;;5014435;28;20161;-43
2022/12/25 13:12:36;;;;;;;14.97;7.00;;;9.60;99.90;;;;;;4976224;28;20352;-42
2022/12/25 13:15:02;;;;;;;22.03;7.43;;;9.60;99.90;;;;;;5012046;28;20717;-44
2022/12/25 13:17:28;;;;;;;17.53;7.57;;;9.70;99.90;;;;;;4996197;28;20210;-42
2022/12/25 13:19:57;;;;;;;22.10;7.47;;;9.70;99.90;;;;;;5013929;28;20171;-43
2022/12/25 13:22:35;;;;;;;18.63;8.23;;;9.70;99.90;;;;;;5013795;28;20195;-43
2022/12/25 13:25:04;;;;;;;18.43;7.77;;;9.60;99.90;;;;;;5014226;28;20162;-42
2022/12/25 13:27:32;;;;;;;17.40;6.80;;;9.70;99.90;;;;;;5013812;28;20199;-42
2022/12/25 13:29:58;;;;;;;18.53;7.03;;;9.70;99.90;;;;;;5014029;28;20190;-42
2022/12/25 13:32:29;;;;;;;19.50;8.00;;;9.70;99.90;;;;;;5014035;28;20557;-45
2022/12/25 13:34:55;;;;;;;16.97;7.93;;;9.70;99.90;;;;;;5014377;28;20174;-43
2022/12/25 13:37:24;;;;;;;19.90;7.60;;;9.70;99.90;;;;;;5013946;28;20181;-44
2022/12/25 13:39:50;;;;;;;18.17;8.17;;;9.80;99.90;;;;;;5014091;28;20188;-42
2022/12/25 13:42:20;;;;;;;21.30;8.60;;;9.70;99.90;;;;;;5013739;28;20195;-43
2022/12/25 13:44:49;;;;;;;20.60;9.00;;;9.80;99.90;;;;;;5013639;28;20501;-44
2022/12/25 13:47:44;;;;;;;22.80;8.30;;;9.80;99.90;;;;;;5012508;28;20179;-44
2022/12/25 13:50:27;;;;;;;16.30;7.33;;;9.80;99.90;;;;;;5012390;28;20182;-43
2022/12/25 13:52:55;;;;;;;18.40;7.13;;;9.80;99.90;;;;;;5012830;28;20203;-42
2022/12/25 13:55:25;;;;;;;17.30;7.63;;;9.80;99.90;;;;;;5015099;28;20545;-44
2022/12/25 13:57:56;;;;;;;19.27;8.40;;;9.80;99.90;;;;;;5017780;28;20614;-44
2022/12/25 14:00:34;;;;;;;22.33;7.93;;;9.80;99.90;;;;;;5016274;28;20164;-42
2022/12/25 14:03:00;;;;;;;18.90;8.63;;;9.80;99.90;;;;;;5017732;28;20159;-43
2022/12/25 14:05:32;;;;;;;25.70;8.80;;;9.80;99.90;;;;;;5017355;28;20180;-43
2022/12/25 14:08:00;;;;;;;24.43;9.23;;;9.80;99.90;;;;;;5016279;28;20582;-45
2022/12/25 14:10:31;;;;;;;18.13;8.87;;;9.80;99.90;;;;;;4999587;28;20190;-44
2022/12/25 14:13:01;;;;;;;22.83;9.10;;;9.80;99.90;;;;;;5017620;28;20219;-44
2022/12/25 14:15:30;;;;;;;24.73;9.33;;;9.80;99.90;;;;;;5017240;28;20267;-43
2022/12/25 14:17:56;;;;;;;26.63;9.83;;;9.80;99.90;;;;;;5017544;28;20297;-45
2022/12/25 14:20:27;;;;;;;22.50;9.30;;;9.80;99.90;;;;;;5016174;28;20184;-47
2022/12/25 14:22:57;;;;;;;23.37;9.83;;;9.80;99.90;;;;;;5017656;28;20211;-43
2022/12/25 14:25:30;;;;;;;30.27;11.47;;;9.80;99.90;;;;;;5017501;28;20241;-44
2022/12/25 14:27:56;;;;;;;21.13;10.07;;;9.80;99.90;;;;;;5017601;28;20203;-43
2022/12/25 14:33:59;;;;;;;23.67;10.13;;;9.80;99.90;;;;;;5037199;28;20270;-44
2022/12/25 14:36:25;;;;;;;27.60;10.13;;;9.80;99.90;;;;;;5034706;28;20196;-44
2022/12/25 14:38:59;;;;;;;27.90;10.60;;;9.80;99.90;;;;;;5021674;28;20192;-43
2022/12/25 14:41:40;;;;;;;23.67;10.73;;;9.80;99.90;;;;;;5015731;28;20308;-46
2022/12/25 14:44:31;;;;;;;25.87;10.83;;;9.80;99.90;;;;;;5017106;28;20513;-44
2022/12/25 14:47:11;;;;;;;21.97;9.63;;;9.80;99.90;;;;;;5016801;28;20265;-42
2022/12/25 14:49:38;;;;;;;27.60;10.27;;;9.90;99.90;;;;;;5016969;28;20165;-44
2022/12/25 14:52:15;;;;;;;28.60;9.60;;;9.90;99.90;;;;;;5016659;28;20200;-43
2022/12/25 14:54:45;;;;;;;25.50;9.30;;;9.90;99.90;;;;;;5016891;28;20172;-44
2022/12/25 14:57:23;;;;;;;31.67;8.90;;;9.90;99.90;;;;;;5016483;28;20216;-44
2022/12/25 14:59:59;;;;;;;21.90;9.23;;;10.00;99.90;;;;;;5015045;28;20610;-42
2022/12/25 15:02:25;;;;;;;21.57;8.63;;;10.00;99.90;;;;;;5016368;28;20203;-42
2022/12/25 15:04:50;;;;;;;26.70;8.97;;;10.00;99.90;;;;;;5016334;28;20661;-44